Time;durP1;ratioP1;P1;durP2;ratioP2;P2;SDS_P1;SDS_P2;PMS_P1;PMS_P2;Temp;Humidity;BMP_temperature;BMP_pressure;BME280_temperature;BME280_humidity;BME280_pressure;Samples;Min_cycle;Max_cycle;Signal;HPM_P1;HPM_P2
2022/04/17 00:01:31;;;;;;;113.97;88.13;;;6.00;99.90;;;;;;4865166;29;20105;-91
2022/04/17 00:03:56;;;;;;;107.67;83.50;;;6.00;99.90;;;;;;4880663;29;20131;-91
2022/04/17 00:06:22;;;;;;;116.17;85.37;;;6.00;99.90;;;;;;4880887;29;20040;-87
2022/04/17 00:08:49;;;;;;;115.70;90.40;;;6.10;99.90;;;;;;4880843;29;20045;-91
2022/04/17 00:11:15;;;;;;;113.20;86.93;;;6.10;99.90;;;;;;4880855;29;20049;-89
2022/04/17 00:13:44;;;;;;;123.03;86.63;;;6.10;99.90;;;;;;4865058;29;20095;-89
2022/04/17 00:16:10;;;;;;;114.45;88.00;;;6.10;99.90;;;;;;4865164;29;20132;-87
2022/04/17 00:18:48;;;;;;;120.82;89.80;;;6.00;99.90;;;;;;4881918;29;20049;-92
2022/04/17 00:21:15;;;;;;;118.40;88.90;;;6.00;99.90;;;;;;4865158;29;20048;-90
2022/04/17 00:23:43;;;;;;;118.50;87.78;;;5.80;99.90;;;;;;4880301;29;20068;-91
2022/04/17 00:26:09;;;;;;;122.53;87.15;;;5.80;99.90;;;;;;4880388;29;20509;-87
2022/04/17 00:28:35;;;;;;;121.30;88.23;;;5.70;99.90;;;;;;4864874;29;20189;-90
2022/04/17 00:31:01;;;;;;;116.47;82.50;;;5.60;99.90;;;;;;4881201;29;20135;-85
2022/04/17 00:34:23;;;;;;;115.60;84.37;;;5.50;99.90;;;;;;4880555;29;20040;-90
2022/04/17 00:37:14;;;;;;;110.75;83.13;;;5.50;99.90;;;;;;4864558;29;20064;-92
2022/04/17 00:39:40;;;;;;;111.18;81.03;;;5.30;99.90;;;;;;4864205;29;20057;-90
2022/04/17 00:42:07;;;;;;;110.38;83.70;;;5.20;99.90;;;;;;4865175;29;20045;-90
2022/04/17 00:44:34;;;;;;;113.72;83.20;;;5.10;99.90;;;;;;4864574;29;20049;-90
2022/04/17 00:47:18;;;;;;;;;;;5.00;99.90;;;;;;4864828;29;20085;-92
2022/04/17 00:49:45;;;;;;;107.97;80.63;;;5.00;99.90;;;;;;4864408;29;20291;-89
2022/04/17 00:52:11;;;;;;;;;;;5.00;99.90;;;;;;4864840;29;20481;-89
2022/04/17 00:54:46;;;;;;;106.03;77.80;;;4.90;99.90;;;;;;4864219;29;19924;-91
2022/04/17 00:57:13;;;;;;;106.63;79.00;;;5.00;99.90;;;;;;4864109;29;20051;-88
2022/04/17 00:59:44;;;;;;;107.30;80.25;;;4.90;99.90;;;;;;4879737;29;20068;-90
2022/04/17 01:02:10;;;;;;;108.78;78.32;;;4.90;99.90;;;;;;4863962;29;20056;-89
2022/04/17 01:04:36;;;;;;;102.73;78.30;;;4.90;99.90;;;;;;4864333;29;20041;-87
2022/04/17 01:07:03;;;;;;;107.53;79.45;;;4.90;99.90;;;;;;4879660;29;20557;-90
2022/04/17 01:09:29;;;;;;;;;;;5.00;99.90;;;;;;4865008;29;20067;-89
2022/04/17 01:11:56;;;;;;;94.00;73.32;;;4.90;99.90;;;;;;4879821;29;20355;-91
2022/04/17 01:14:21;;;;;;;96.88;72.82;;;4.90;99.90;;;;;;4880651;29;20048;-90
2022/04/17 01:16:47;;;;;;;98.10;74.93;;;5.00;99.90;;;;;;4879315;29;20071;-91
2022/04/17 01:19:13;;;;;;;103.63;77.50;;;4.90;99.90;;;;;;4880180;29;20048;-91
2022/04/17 01:21:40;;;;;;;100.87;77.37;;;4.80;99.90;;;;;;4863793;29;20509;-89
2022/04/17 01:26:56;;;;;;;98.13;76.20;;;4.70;99.90;;;;;;4879587;29;20454;-88
2022/04/17 01:29:23;;;;;;;104.95;79.32;;;4.70;99.90;;;;;;4864237;29;20044;-91
2022/04/17 01:31:48;;;;;;;108.28;79.75;;;4.70;99.90;;;;;;4880568;29;20114;-90
2022/04/17 01:34:16;;;;;;;106.90;78.27;;;4.70;99.90;;;;;;4863935;29;20081;-91
2022/04/17 01:36:46;;;;;;;101.38;78.03;;;4.60;99.90;;;;;;4863826;29;20059;-92
2022/04/17 01:39:12;;;;;;;102.20;75.75;;;4.60;99.90;;;;;;4863781;29;20053;-90
2022/04/17 01:41:38;;;;;;;100.20;76.28;;;4.70;99.90;;;;;;4863645;29;20501;-92
2022/04/17 01:44:05;;;;;;;103.13;75.95;;;4.60;99.90;;;;;;4863794;29;20056;-90
2022/04/17 01:46:32;;;;;;;99.63;75.82;;;4.70;99.90;;;;;;4879923;29;20397;-88
2022/04/17 01:48:57;;;;;;;101.67;76.27;;;4.70;99.90;;;;;;4878960;29;20096;-90
2022/04/17 01:51:23;;;;;;;99.77;75.63;;;4.70;99.90;;;;;;4863479;29;20087;-88
2022/04/17 01:53:49;;;;;;;99.77;77.13;;;4.70;99.90;;;;;;4879705;29;20438;-88
2022/04/17 01:56:15;;;;;;;94.93;74.15;;;4.70;99.90;;;;;;4880182;29;20592;-88
2022/04/17 01:58:41;;;;;;;98.90;75.47;;;4.70;99.90;;;;;;4878878;29;20048;-89
2022/04/17 02:01:06;;;;;;;98.73;72.20;;;4.60;99.90;;;;;;4878714;29;20048;-90
2022/04/17 02:03:32;;;;;;;94.10;73.87;;;4.50;99.90;;;;;;4863326;29;20044;-90
2022/04/17 02:06:00;;;;;;;95.73;70.63;;;4.50;99.90;;;;;;4863523;29;20052;-91
2022/04/17 02:08:28;;;;;;;95.65;70.75;;;4.50;99.90;;;;;;4863332;29;20057;-90
2022/04/17 02:10:54;;;;;;;94.05;67.75;;;4.50;99.90;;;;;;4879984;29;20501;-90
2022/04/17 02:13:21;;;;;;;85.72;66.45;;;4.40;99.90;;;;;;4879100;29;20041;-90
2022/04/17 02:15:49;;;;;;;89.05;67.85;;;4.40;99.90;;;;;;4878578;29;20060;-91
2022/04/17 02:18:16;;;;;;;95.55;67.80;;;4.50;99.90;;;;;;4878941;29;20080;-90
2022/04/17 02:20:42;;;;;;;91.97;69.55;;;4.50;99.90;;;;;;4863478;29;20076;-90
2022/04/17 02:23:08;;;;;;;95.15;70.25;;;4.50;99.90;;;;;;4881101;29;20120;-89
2022/04/17 02:25:34;;;;;;;91.43;70.13;;;4.50;99.90;;;;;;4881660;29;20045;-90
2022/04/17 02:28:06;;;;;;;90.00;67.13;;;4.50;99.90;;;;;;4866906;29;20052;-91
2022/04/17 02:30:32;;;;;;;87.03;62.08;;;4.50;99.90;;;;;;4865798;29;20052;-88
2022/04/17 02:32:58;;;;;;;80.82;61.30;;;4.50;99.90;;;;;;4863823;29;20108;-89
2022/04/17 02:35:23;;;;;;;80.78;61.50;;;4.60;99.90;;;;;;4896207;29;20048;-88
2022/04/17 02:37:49;;;;;;;80.90;61.65;;;4.60;99.90;;;;;;4863412;29;20057;-88
2022/04/17 02:40:15;;;;;;;83.37;63.20;;;4.60;99.90;;;;;;4878928;29;20088;-88
2022/04/17 02:43:08;;;;;;;78.65;60.50;;;4.60;99.90;;;;;;4863865;29;20053;-87
2022/04/17 02:45:53;;;;;;;86.47;63.80;;;4.60;99.90;;;;;;4876337;29;20135;-90
2022/04/17 02:48:20;;;;;;;84.35;64.50;;;4.50;99.90;;;;;;4866297;29;20108;-91
2022/04/17 02:50:47;;;;;;;86.20;64.57;;;4.50;99.90;;;;;;4866210;29;20059;-91
2022/04/17 02:53:14;;;;;;;77.32;62.08;;;4.40;99.90;;;;;;4881526;29;20516;-91
2022/04/17 02:55:39;;;;;;;;;;;4.30;99.90;;;;;;4882236;29;20051;-92
2022/04/17 02:58:11;;;;;;;72.90;56.83;;;4.20;99.90;;;;;;4866204;29;20332;-89
2022/04/17 03:06:17;;;;;;;74.47;53.50;;;4.30;99.90;;;;;;4884719;29;20511;-93
2022/04/17 03:08:43;;;;;;;74.20;55.08;;;4.30;99.90;;;;;;4884566;29;20037;-89
2022/04/17 03:11:09;;;;;;;69.07;54.60;;;4.30;99.90;;;;;;4869194;29;20500;-92
2022/04/17 03:13:35;;;;;;;75.13;55.70;;;4.30;99.90;;;;;;4869247;29;20044;-88
2022/04/17 03:16:01;;;;;;;68.93;54.20;;;4.30;99.90;;;;;;4869244;29;20551;-88
2022/04/17 03:18:27;;;;;;;69.37;53.37;;;4.20;99.90;;;;;;4884692;29;20136;-91
2022/04/17 03:20:53;;;;;;;68.33;54.33;;;4.20;99.90;;;;;;4868967;29;20381;-88
2022/04/17 03:23:19;;;;;;;72.90;53.47;;;4.10;99.90;;;;;;4900633;29;20382;-90
2022/04/17 03:25:48;;;;;;;76.75;57.47;;;4.10;99.90;;;;;;4884472;29;20092;-89
2022/04/17 03:28:15;;;;;;;73.85;56.63;;;3.90;99.90;;;;;;4868777;29;20049;-90
2022/04/17 03:30:40;;;;;;;76.03;56.47;;;3.90;99.90;;;;;;4868882;29;20493;-90
2022/04/17 03:33:06;;;;;;;78.60;56.73;;;3.80;99.90;;;;;;4868936;29;20055;-88
2022/04/17 03:35:32;;;;;;;72.40;57.23;;;3.70;99.90;;;;;;4868587;29;20496;-94
2022/04/17 03:37:58;;;;;;;78.87;58.27;;;3.70;99.90;;;;;;4869111;29;20048;-92
2022/04/17 03:40:23;;;;;;;79.57;58.43;;;3.60;99.90;;;;;;4869104;29;20104;-92
2022/04/17 03:42:49;;;;;;;73.13;55.03;;;3.70;99.90;;;;;;4869096;29;20048;-93
2022/04/17 03:45:16;;;;;;;71.53;54.83;;;3.70;99.90;;;;;;4884368;29;20157;-93
2022/04/17 03:47:42;;;;;;;;;;;3.60;99.90;;;;;;4869107;29;20075;-91
2022/04/17 03:50:09;;;;;;;79.80;53.55;;;3.60;99.90;;;;;;4884345;29;19923;-91
2022/04/17 03:52:47;;;;;;;66.63;50.58;;;3.60;99.90;;;;;;4868581;29;20049;-93
2022/04/17 03:55:13;;;;;;;66.13;49.30;;;3.60;99.90;;;;;;4884357;29;20416;-92
2022/04/17 03:57:39;;;;;;;72.15;50.03;;;3.60;99.90;;;;;;4868420;29;20131;-91
2022/04/17 04:00:07;;;;;;;68.85;47.85;;;3.60;99.90;;;;;;4884088;29;20048;-92
2022/04/17 04:02:33;;;;;;;60.97;47.13;;;3.60;99.90;;;;;;4883819;29;20087;-92
2022/04/17 04:04:59;;;;;;;63.20;46.35;;;3.50;99.90;;;;;;4868659;29;20500;-93
2022/04/17 04:07:24;;;;;;;63.15;44.60;;;3.50;99.90;;;;;;4868487;29;20386;-92
2022/04/17 04:09:51;;;;;;;60.30;44.85;;;3.50;99.90;;;;;;4868225;29;20055;-93
2022/04/17 04:12:18;;;;;;;55.45;43.88;;;3.40;99.90;;;;;;4898372;23;20044;-89
2022/04/17 04:14:44;;;;;;;58.00;44.28;;;3.40;99.90;;;;;;4902540;29;20056;-90
2022/04/17 04:17:10;;;;;;;59.30;42.53;;;3.30;99.90;;;;;;4886737;29;20048;-88
2022/04/17 04:19:36;;;;;;;53.55;41.72;;;3.20;99.90;;;;;;4902413;29;20055;-90
2022/04/17 04:22:02;;;;;;;54.97;41.08;;;3.20;99.90;;;;;;4886922;29;20048;-90
2022/04/17 04:24:27;;;;;;;54.13;39.58;;;3.20;99.90;;;;;;4887445;29;20564;-93
2022/04/17 04:29:38;;;;;;;49.03;38.63;;;3.20;99.90;;;;;;4902473;29;20079;-88
2022/04/17 04:32:04;;;;;;;51.65;38.92;;;3.10;99.90;;;;;;4886396;29;20048;-93
2022/04/17 04:34:30;;;;;;;49.10;37.78;;;3.10;99.90;;;;;;4902270;29;20067;-89
2022/04/17 04:36:57;;;;;;;48.05;35.85;;;3.00;99.90;;;;;;4902470;29;20099;-90
2022/04/17 04:39:23;;;;;;;50.83;36.92;;;3.00;99.90;;;;;;4902201;29;20055;-89
2022/04/17 04:41:55;;;;;;;46.40;34.58;;;3.00;99.90;;;;;;4902248;29;20134;-90
2022/04/17 04:44:20;;;;;;;49.40;35.25;;;3.10;99.90;;;;;;4886434;29;20056;-87
2022/04/17 04:46:46;;;;;;;43.47;33.50;;;3.10;99.90;;;;;;4901952;29;20044;-90
2022/04/17 04:49:30;;;;;;;44.77;34.03;;;3.10;99.90;;;;;;4918744;29;20129;-92
2022/04/17 04:51:57;;;;;;;44.83;34.42;;;3.00;99.90;;;;;;4902134;29;20056;-92
2022/04/17 04:54:23;;;;;;;45.33;32.80;;;3.00;99.90;;;;;;4901675;29;20052;-91
2022/04/17 04:57:35;;;;;;;44.10;31.92;;;3.00;99.90;;;;;;4918605;29;20055;-92
2022/04/17 05:00:16;;;;;;;42.92;32.35;;;3.00;99.90;;;;;;4886202;29;20143;-91
2022/04/17 05:02:42;;;;;;;45.05;30.83;;;3.10;99.90;;;;;;4886325;29;20047;-92
2022/04/17 05:05:08;;;;;;;44.28;31.52;;;3.20;99.90;;;;;;4885972;29;20385;-91
2022/04/17 05:07:34;;;;;;;47.22;32.75;;;3.20;99.90;;;;;;4901721;29;20052;-89
2022/04/17 05:10:00;;;;;;;46.33;31.25;;;3.30;99.90;;;;;;4918251;29;20044;-88
2022/04/17 05:12:27;;;;;;;43.40;31.75;;;3.30;99.90;;;;;;4884695;29;20052;-87
2022/04/17 05:15:22;;;;;;;42.38;31.55;;;3.40;99.90;;;;;;4901121;29;20058;-86
2022/04/17 05:17:48;;;;;;;41.40;30.05;;;3.40;99.90;;;;;;4884684;29;20087;-87
2022/04/17 05:20:17;;;;;;;45.72;31.80;;;3.50;99.90;;;;;;4917386;29;20483;-87
2022/04/17 05:22:44;;;;;;;44.53;30.58;;;3.40;99.90;;;;;;4900523;29;20044;-86
2022/04/17 05:25:10;;;;;;;;;;;3.40;99.90;;;;;;4900952;29;20508;-87
2022/04/17 05:27:35;;;;;;;40.08;29.30;;;3.40;99.90;;;;;;4899704;29;19930;-86
2022/04/17 05:30:01;;;;;;;40.08;29.85;;;3.40;99.90;;;;;;4898540;29;20048;-87
2022/04/17 05:32:27;;;;;;;41.50;29.00;;;3.40;99.90;;;;;;4883778;29;20063;-88
2022/04/17 05:34:53;;;;;;;42.13;28.80;;;3.40;99.90;;;;;;4884621;29;20052;-85
2022/04/17 05:37:18;;;;;;;40.47;28.45;;;3.40;99.90;;;;;;4901413;29;20059;-91
2022/04/17 05:39:44;;;;;;;37.55;28.08;;;3.50;99.90;;;;;;4901119;29;20040;-90
2022/04/17 05:42:11;;;;;;;40.07;29.20;;;3.60;99.90;;;;;;4900800;29;20071;-87
2022/04/17 05:44:37;;;;;;;;;;;3.60;99.90;;;;;;4901153;29;20079;-87
2022/04/17 05:47:03;;;;;;;39.55;28.13;;;3.60;99.90;;;;;;4900075;29;20193;-90
2022/04/17 05:49:29;;;;;;;42.67;28.52;;;3.70;99.90;;;;;;4884765;29;20047;-87
2022/04/17 05:51:57;;;;;;;39.58;28.85;;;3.70;99.90;;;;;;4883796;29;20044;-87
2022/04/17 05:54:24;;;;;;;39.30;28.00;;;3.80;99.90;;;;;;4899552;29;20477;-88
2022/04/17 05:56:50;;;;;;;36.83;27.27;;;3.90;99.90;;;;;;4900253;29;20057;-88
2022/04/17 05:59:15;;;;;;;37.80;26.73;;;4.00;99.90;;;;;;4900201;29;20484;-86
2022/04/17 06:01:41;;;;;;;41.95;26.98;;;4.00;99.90;;;;;;4884851;29;20052;-87
2022/04/17 06:04:07;;;;;;;37.40;26.92;;;4.10;99.90;;;;;;4884520;29;20091;-89
2022/04/17 06:06:32;;;;;;;37.63;27.37;;;4.20;99.90;;;;;;4900719;29;20143;-88
2022/04/17 06:09:02;;;;;;;39.63;27.10;;;4.30;99.90;;;;;;4900250;29;20048;-93
2022/04/17 07:01:18;;;;;;;27.20;20.25;;;12.40;95.20;;;;;;4927937;23;20044;-93
2022/04/17 07:03:47;;;;;;;27.52;20.25;;;12.40;94.40;;;;;;4903808;29;20066;-92
2022/04/17 07:09:09;;;;;;;26.63;20.02;;;12.20;94.40;;;;;;4927500;23;20084;-92
2022/04/17 08:25:40;;;;;;;11.13;7.63;;;11.50;91.30;;;;;;1805978;23;20345;-89
2022/04/17 08:28:06;;;;;;;12.80;8.10;;;11.60;90.90;;;;;;4885327;29;20123;-93
2022/04/17 08:30:32;;;;;;;13.27;8.15;;;11.60;91.00;;;;;;4886888;29;20040;-94
2022/04/17 08:33:03;;;;;;;10.95;8.07;;;11.70;91.50;;;;;;4887012;29;20417;-94
2022/04/17 08:35:29;;;;;;;10.90;7.68;;;11.80;91.20;;;;;;4887019;29;20103;-94
2022/04/17 08:37:57;;;;;;;10.60;7.18;;;11.80;90.90;;;;;;4886380;29;20131;-93
2022/04/17 11:47:10;;;;;;;8.30;4.90;;;17.10;54.90;;;;;;1464907;23;20354;-85
2022/04/17 11:49:45;;;;;;;8.45;4.90;;;17.10;53.80;;;;;;4900055;29;20077;-87
2022/04/17 11:52:21;;;;;;;6.40;3.65;;;17.10;53.70;;;;;;4882365;29;20250;-87
2022/04/17 11:54:47;;;;;;;7.53;4.38;;;17.10;53.80;;;;;;4899463;29;20055;-90
2022/04/17 11:57:19;;;;;;;6.30;4.07;;;17.10;52.70;;;;;;4884332;29;20049;-90
2022/04/17 14:58:12;;;;;;;4.35;2.33;;;17.50;48.60;;;;;;752174;23;20323;-92
2022/04/17 15:00:38;;;;;;;3.90;2.05;;;17.50;48.00;;;;;;4884160;29;20157;-93
2022/04/17 15:03:04;;;;;;;4.30;2.03;;;17.50;48.80;;;;;;4887720;29;20514;-91
2022/04/17 15:05:48;;;;;;;5.22;2.47;;;17.60;48.30;;;;;;4887813;29;20044;-93
2022/04/17 15:08:14;;;;;;;4.20;2.03;;;17.50;47.80;;;;;;4888296;29;20493;-89
2022/04/17 15:10:40;;;;;;;4.20;1.88;;;17.40;48.20;;;;;;4904025;29;20059;-92
2022/04/17 15:13:09;;;;;;;5.28;2.30;;;17.40;48.30;;;;;;4888067;29;20051;-93
2022/04/17 15:15:36;;;;;;;5.53;2.10;;;17.40;47.80;;;;;;4887784;29;20044;-94
2022/04/17 15:18:04;;;;;;;4.63;2.38;;;17.50;47.70;;;;;;4887914;29;20080;-93
2022/04/17 15:20:59;;;;;;;4.97;2.60;;;17.40;48.40;;;;;;4886856;29;20044;-94
2022/04/17 15:23:33;;;;;;;5.57;2.80;;;17.50;49.60;;;;;;4888987;29;20058;-94
2022/04/17 15:26:02;;;;;;;5.13;2.60;;;17.40;49.80;;;;;;4887922;29;20595;-95
2022/04/17 16:39:16;;;;;;;5.70;2.30;;;16.20;51.80;;;;;;905610;23;20354;-87
2022/04/17 16:41:41;;;;;;;3.45;1.80;;;16.10;52.60;;;;;;4884774;29;20056;-91
2022/04/17 16:44:07;;;;;;;3.40;1.77;;;16.10;53.20;;;;;;4886366;29;20047;-90
2022/04/17 16:46:33;;;;;;;4.63;1.70;;;16.00;52.50;;;;;;4886349;29;20046;-92
2022/04/17 16:48:59;;;;;;;3.97;1.70;;;16.00;53.30;;;;;;4886447;29;20040;-91
2022/04/17 16:51:24;;;;;;;4.78;1.90;;;15.90;53.70;;;;;;4886188;29;20055;-96
2022/04/17 16:53:50;;;;;;;4.40;1.75;;;15.90;53.40;;;;;;4886677;29;20044;-93
2022/04/17 18:04:43;;;;;;;4.80;2.10;;;13.70;58.30;;;;;;4897154;29;20516;-90
2022/04/17 18:07:11;;;;;;;5.20;2.10;;;13.60;59.00;;;;;;4866466;29;20056;-90
2022/04/17 18:15:24;;;;;;;4.40;2.30;;;13.30;60.50;;;;;;4881393;29;20489;-92
2022/04/17 18:17:50;;;;;;;4.35;2.65;;;13.10;61.30;;;;;;4866748;29;20049;-92
2022/04/17 18:20:16;;;;;;;4.33;2.20;;;12.90;61.80;;;;;;4866543;29;20047;-90
2022/04/17 18:22:45;;;;;;;7.28;2.75;;;12.80;62.80;;;;;;4866668;29;20045;-92
2022/04/17 18:25:12;;;;;;;5.78;2.90;;;12.60;63.50;;;;;;4866338;29;20041;-90
2022/04/17 18:27:38;;;;;;;;;;;12.50;63.70;;;;;;4866951;29;20052;-90
2022/04/17 18:30:22;;;;;;;7.32;3.10;;;12.40;63.70;;;;;;4866245;29;19930;-92
2022/04/17 18:32:48;;;;;;;6.68;3.17;;;12.30;64.00;;;;;;4866680;29;20048;-89
2022/04/17 18:35:33;;;;;;;5.60;2.80;;;12.20;64.30;;;;;;4870175;29;20036;-89
2022/04/17 19:22:26;;;;;;;8.07;4.78;;;10.40;71.60;;;;;;1592963;23;20554;-88
2022/04/17 20:12:27;;;;;;;9.25;5.45;;;9.30;70.80;;;;;;6231505;22;1386596;-90
2022/04/17 20:21:17;;;;;;;;;;;;;;;;;;;;;
